createdAt,value
2018-09-27T00:01:50.419Z,6.10
2018-09-27T00:04:18.868Z,6.10
2018-09-27T00:06:47.413Z,6.10
2018-09-27T00:09:15.872Z,6.10
2018-09-27T00:11:44.324Z,6.00
2018-09-27T00:14:12.817Z,6.10
2018-09-27T00:16:41.274Z,6.00
2018-09-27T00:19:10.291Z,5.90
2018-09-27T00:21:38.902Z,5.90
2018-09-27T00:24:07.494Z,5.90
2018-09-27T00:26:35.967Z,5.90
2018-09-27T00:29:04.432Z,5.80
2018-09-27T00:31:33.107Z,5.90
2018-09-27T00:34:01.559Z,5.90
2018-09-27T00:36:30.192Z,5.80
2018-09-27T00:38:58.634Z,5.80
2018-09-27T00:41:27.198Z,5.80
2018-09-27T00:43:55.680Z,5.80
2018-09-27T00:46:24.131Z,5.80
2018-09-27T00:48:52.581Z,5.80
2018-09-27T00:51:21.079Z,5.70
2018-09-27T00:53:49.516Z,5.70
2018-09-27T00:56:17.944Z,5.80
2018-09-27T00:58:46.412Z,5.80
2018-09-27T01:01:14.938Z,5.70
2018-09-27T01:03:43.412Z,5.70
2018-09-27T01:06:12.026Z,5.80
2018-09-27T01:08:40.499Z,5.80
2018-09-27T01:11:09.055Z,5.90
2018-09-27T01:13:37.525Z,5.90
2018-09-27T01:16:06.513Z,5.80
2018-09-27T01:18:35.000Z,5.80
2018-09-27T01:21:03.543Z,5.70
2018-09-27T01:23:32.149Z,5.80
2018-09-27T01:26:01.141Z,5.80
2018-09-27T01:28:29.682Z,5.80
2018-09-27T01:30:58.180Z,5.80
2018-09-27T01:33:26.642Z,5.70
2018-09-27T01:35:55.144Z,5.60
2018-09-27T01:38:24.101Z,5.60
2018-09-27T01:40:52.567Z,5.50
2018-09-27T01:43:21.048Z,5.50
2018-09-27T01:45:49.519Z,5.60
2018-09-27T01:48:17.979Z,5.50
2018-09-27T01:50:46.442Z,5.50
2018-09-27T01:53:14.883Z,5.50
2018-09-27T01:55:43.362Z,5.50
2018-09-27T01:58:11.833Z,5.50
2018-09-27T02:00:40.325Z,5.40
2018-09-27T02:03:08.858Z,5.40
2018-09-27T02:05:37.347Z,5.40
2018-09-27T02:08:05.959Z,5.60
2018-09-27T02:10:34.429Z,5.70
2018-09-27T02:13:02.917Z,5.70
2018-09-27T02:15:31.418Z,5.60
2018-09-27T02:17:59.963Z,5.50
2018-09-27T02:20:28.502Z,5.60
2018-09-27T02:22:56.973Z,5.60
2018-09-27T02:25:25.422Z,5.50
2018-09-27T02:27:53.915Z,5.50
2018-09-27T02:30:22.394Z,5.40
2018-09-27T02:32:50.840Z,5.30
2018-09-27T02:35:19.330Z,5.40
2018-09-27T02:37:47.911Z,5.60
2018-09-27T02:40:16.365Z,5.90
2018-09-27T02:42:44.837Z,6.10
2018-09-27T02:45:13.304Z,6.00
2018-09-27T02:47:43.433Z,5.90
2018-09-27T02:50:12.010Z,5.70
2018-09-27T02:52:40.504Z,5.50
2018-09-27T02:55:09.013Z,5.40
2018-09-27T02:57:37.521Z,5.30
2018-09-27T03:00:06.063Z,5.30
2018-09-27T03:02:34.530Z,5.20
2018-09-27T03:05:03.000Z,5.20
2018-09-27T03:07:31.484Z,5.10
2018-09-27T03:10:00.043Z,5.10
2018-09-27T03:12:28.525Z,5.10
2018-09-27T03:14:56.963Z,5.00
2018-09-27T03:17:25.408Z,5.00
2018-09-27T03:19:53.872Z,5.00
2018-09-27T03:22:22.380Z,4.90
2018-09-27T03:24:50.862Z,4.80
2018-09-27T03:27:19.349Z,4.80
2018-09-27T03:29:47.801Z,4.80
2018-09-27T03:32:16.277Z,4.70
2018-09-27T03:34:44.747Z,4.70
2018-09-27T03:37:13.199Z,4.70
2018-09-27T03:39:41.696Z,4.60
2018-09-27T03:42:10.338Z,4.50
2018-09-27T03:44:38.804Z,4.50
2018-09-27T03:47:07.407Z,4.40
2018-09-27T03:49:35.886Z,4.40
2018-09-27T03:52:04.357Z,4.40
2018-09-27T03:54:32.822Z,4.30
2018-09-27T03:57:01.270Z,4.30
2018-09-27T03:59:29.749Z,4.40
2018-09-27T04:01:58.214Z,4.40
2018-09-27T04:04:26.711Z,4.30
2018-09-27T04:06:55.170Z,4.20
2018-09-27T04:09:23.615Z,4.20
2018-09-27T04:11:52.491Z,4.10
2018-09-27T04:14:20.939Z,4.10
2018-09-27T04:16:49.415Z,4.10
2018-09-27T04:19:17.888Z,4.00
2018-09-27T04:21:46.385Z,4.00
2018-09-27T04:24:14.832Z,4.10
2018-09-27T04:26:43.358Z,4.10
2018-09-27T04:29:11.825Z,4.10
2018-09-27T04:31:40.469Z,4.10
2018-09-27T04:34:09.379Z,4.10
2018-09-27T04:36:37.915Z,4.10
2018-09-27T04:39:09.001Z,4.00
2018-09-27T04:41:37.715Z,3.90
2018-09-27T04:44:06.219Z,3.80
2018-09-27T04:46:34.746Z,3.80
2018-09-27T04:49:03.349Z,3.80
2018-09-27T04:51:31.820Z,3.70
2018-09-27T04:54:00.286Z,3.70
2018-09-27T04:56:28.871Z,3.60
2018-09-27T04:58:57.325Z,3.60
2018-09-27T05:01:25.786Z,3.60
2018-09-27T05:03:54.300Z,3.60
2018-09-27T05:06:22.828Z,3.70
2018-09-27T05:08:51.307Z,3.70
2018-09-27T05:11:19.779Z,3.60
2018-09-27T05:13:48.227Z,3.50
2018-09-27T05:16:16.677Z,3.40
2018-09-27T05:18:45.242Z,3.50
2018-09-27T05:21:13.696Z,3.50
2018-09-27T05:23:42.184Z,3.50
2018-09-27T05:26:10.691Z,3.40
2018-09-27T05:28:39.451Z,3.40
2018-09-27T05:31:07.979Z,3.30
2018-09-27T05:33:36.555Z,3.30
2018-09-27T05:36:05.160Z,3.30
2018-09-27T05:38:33.664Z,3.30
2018-09-27T05:41:02.169Z,3.30
2018-09-27T05:43:31.445Z,3.40
2018-09-27T05:45:59.930Z,3.40
2018-09-27T05:48:28.421Z,3.40
2018-09-27T05:50:56.899Z,3.40
2018-09-27T05:53:25.354Z,3.40
2018-09-27T05:55:53.900Z,3.50
2018-09-27T05:58:22.340Z,3.50
2018-09-27T06:00:51.109Z,3.60
2018-09-27T06:03:19.579Z,3.60
2018-09-27T06:05:48.054Z,3.70
2018-09-27T06:08:16.500Z,3.80
2018-09-27T06:10:44.975Z,3.90
2018-09-27T06:13:13.415Z,4.20
2018-09-27T06:15:41.972Z,4.70
2018-09-27T06:18:10.441Z,5.40
2018-09-27T06:20:38.886Z,6.00
2018-09-27T06:23:07.529Z,6.70
2018-09-27T06:25:36.010Z,7.30
2018-09-27T06:28:04.462Z,7.60
2018-09-27T06:30:33.269Z,8.10
2018-09-27T06:33:01.754Z,8.60
2018-09-27T06:35:30.206Z,9.20
2018-09-27T06:37:58.658Z,9.60
2018-09-27T06:40:27.180Z,10.00
2018-09-27T06:42:55.647Z,10.20
2018-09-27T06:45:24.114Z,10.60
2018-09-27T06:47:52.848Z,10.90
2018-09-27T06:50:21.319Z,11.30
2018-09-27T06:52:49.875Z,11.80
2018-09-27T06:55:18.639Z,12.30
2018-09-27T06:57:46.968Z,12.60
2018-09-27T07:00:15.436Z,13.00
2018-09-27T07:02:43.993Z,13.30
2018-09-27T07:05:12.413Z,13.60
2018-09-27T07:07:40.857Z,14.00
2018-09-27T07:10:09.378Z,14.20
2018-09-27T07:12:37.908Z,14.40
2018-09-27T07:15:06.532Z,14.60
2018-09-27T07:17:35.019Z,14.90
2018-09-27T07:20:03.529Z,15.20
2018-09-27T07:22:31.978Z,14.90
2018-09-27T07:25:00.470Z,14.80
2018-09-27T07:27:28.986Z,14.80
2018-09-27T07:29:57.439Z,14.80
2018-09-27T07:32:25.994Z,15.10
2018-09-27T07:34:54.395Z,14.90
2018-09-27T07:37:22.891Z,15.20
2018-09-27T07:39:51.402Z,15.50
2018-09-27T07:42:19.869Z,16.00
2018-09-27T07:44:48.397Z,16.50
2018-09-27T07:47:16.932Z,16.20
2018-09-27T07:49:45.496Z,16.30
2018-09-27T07:52:13.948Z,16.80
2018-09-27T07:54:42.466Z,17.10
2018-09-27T07:57:10.950Z,17.40
2018-09-27T07:59:39.462Z,17.30
2018-09-27T08:02:07.944Z,18.10
2018-09-27T08:04:36.435Z,18.30
2018-09-27T08:07:05.066Z,18.60
2018-09-27T08:09:33.572Z,18.50
2018-09-27T08:12:02.152Z,18.80
2018-09-27T08:14:30.594Z,19.00
2018-09-27T08:16:59.189Z,19.30
2018-09-27T08:19:27.734Z,19.50
2018-09-27T08:21:56.236Z,19.70
2018-09-27T08:24:24.726Z,19.60
2018-09-27T08:26:53.549Z,19.50
2018-09-27T08:29:22.025Z,19.40
2018-09-27T08:31:50.513Z,19.40
2018-09-27T08:34:19.020Z,19.60
2018-09-27T08:36:47.466Z,19.50
2018-09-27T08:39:15.968Z,19.70
2018-09-27T08:41:45.865Z,19.80
2018-09-27T08:44:15.037Z,20.10
2018-09-27T08:46:43.902Z,20.00
2018-09-27T08:49:12.391Z,20.50
2018-09-27T08:51:42.939Z,20.60
2018-09-27T08:54:11.440Z,20.90
2018-09-27T08:56:39.899Z,21.00
2018-09-27T08:59:08.379Z,21.30
2018-09-27T09:01:36.967Z,21.60
2018-09-27T09:04:05.514Z,21.50
2018-09-27T09:06:34.052Z,21.70
2018-09-27T09:09:02.645Z,21.60
2018-09-27T09:11:31.123Z,21.30
2018-09-27T09:13:59.808Z,21.40
2018-09-27T09:16:29.241Z,21.30
2018-09-27T09:18:57.742Z,21.50
2018-09-27T09:21:26.280Z,21.50
2018-09-27T09:23:54.756Z,22.10
2018-09-27T09:26:23.215Z,22.10
2018-09-27T09:28:51.656Z,21.80
2018-09-27T09:31:20.134Z,21.50
2018-09-27T09:33:48.602Z,21.50
2018-09-27T09:36:17.073Z,21.40
2018-09-27T09:38:45.613Z,21.70
2018-09-27T09:41:14.076Z,22.00
2018-09-27T09:43:42.539Z,22.20
2018-09-27T09:46:11.048Z,22.40
2018-09-27T09:48:39.524Z,22.00
2018-09-27T09:51:08.063Z,21.80
2018-09-27T09:53:37.652Z,22.50
2018-09-27T09:56:06.151Z,22.60
2018-09-27T09:58:34.602Z,23.00
2018-09-27T10:01:03.102Z,23.40
2018-09-27T10:03:31.567Z,23.10
2018-09-27T10:06:00.017Z,23.00
2018-09-27T10:08:28.501Z,22.40
2018-09-27T10:10:56.959Z,22.60
2018-09-27T10:13:25.430Z,23.20
2018-09-27T10:15:53.920Z,23.20
2018-09-27T10:18:22.370Z,23.40
2018-09-27T10:20:50.896Z,23.70
2018-09-27T10:23:20.247Z,24.10
2018-09-27T10:25:48.701Z,24.30
2018-09-27T10:28:17.186Z,23.90
2018-09-27T10:30:45.688Z,24.00
2018-09-27T10:33:14.156Z,23.70
2018-09-27T10:35:42.676Z,24.30
2018-09-27T10:38:11.178Z,24.80
2018-09-27T10:40:39.730Z,25.00
2018-09-27T10:43:08.198Z,25.30
2018-09-27T10:45:36.693Z,25.40
2018-09-27T10:48:05.593Z,25.50
2018-09-27T10:50:34.260Z,25.50
2018-09-27T10:53:02.750Z,25.60
2018-09-27T10:55:31.193Z,25.00
2018-09-27T10:57:59.648Z,25.10
2018-09-27T11:00:28.169Z,25.70
2018-09-27T11:02:56.628Z,25.50
2018-09-27T11:05:25.127Z,25.80
2018-09-27T11:07:53.593Z,26.00
2018-09-27T11:10:22.045Z,25.60
2018-09-27T11:12:50.491Z,25.90
2018-09-27T11:15:18.961Z,25.90
2018-09-27T11:17:47.432Z,26.30
2018-09-27T11:20:15.874Z,26.40
2018-09-27T11:22:44.382Z,26.60
2018-09-27T11:25:12.847Z,27.10
2018-09-27T11:27:41.338Z,27.70
2018-09-27T11:30:18.005Z,28.00
2018-09-27T11:32:46.781Z,27.80
2018-09-27T11:35:15.236Z,27.20
2018-09-27T11:37:43.764Z,26.80
2018-09-27T11:40:12.227Z,27.10
2018-09-27T11:42:40.796Z,27.50
2018-09-27T11:45:09.752Z,28.00
2018-09-27T11:47:38.257Z,27.90
2018-09-27T11:50:06.899Z,27.90
2018-09-27T11:52:35.320Z,28.10
2018-09-27T11:55:03.912Z,28.60
2018-09-27T12:00:25.619Z,29.00
2018-09-27T12:02:54.074Z,29.30
2018-09-27T12:05:22.552Z,29.60
2018-09-27T12:07:51.321Z,29.60
2018-09-27T12:10:19.809Z,29.90
2018-09-27T12:12:48.261Z,31.20
2018-09-27T12:15:16.719Z,31.20
2018-09-27T12:17:45.258Z,30.70
2018-09-27T12:20:13.652Z,29.10
2018-09-27T12:22:42.131Z,28.50
2018-09-27T12:25:10.627Z,29.10
2018-09-27T12:27:39.076Z,29.90
2018-09-27T12:30:07.628Z,31.00
2018-09-27T12:32:36.112Z,31.40
2018-09-27T12:35:04.683Z,31.40
2018-09-27T12:37:33.138Z,31.80
2018-09-27T12:40:01.627Z,30.50
2018-09-27T12:42:30.148Z,30.30
2018-09-27T12:44:58.578Z,31.30
2018-09-27T12:47:27.047Z,32.40
2018-09-27T12:49:55.505Z,32.80
2018-09-27T12:52:24.144Z,32.30
2018-09-27T12:54:52.446Z,32.30
2018-09-27T12:57:21.001Z,31.40
2018-09-27T12:59:49.464Z,31.60
2018-09-27T13:02:18.083Z,31.40
2018-09-27T13:04:46.445Z,31.50
2018-09-27T13:07:14.928Z,30.70
2018-09-27T13:09:43.556Z,30.50
2018-09-27T13:12:11.937Z,31.40
2018-09-27T13:14:40.485Z,32.20
2018-09-27T13:17:08.967Z,32.70
2018-09-27T13:19:37.453Z,32.60
2018-09-27T13:22:05.860Z,32.20
2018-09-27T13:24:34.392Z,31.50
2018-09-27T13:27:02.943Z,31.20
2018-09-27T13:29:31.346Z,31.00
2018-09-27T13:31:59.910Z,31.10
2018-09-27T13:34:28.306Z,31.90
2018-09-27T13:36:56.817Z,31.90
2018-09-27T13:39:25.301Z,32.60
2018-09-27T13:41:53.759Z,33.10
2018-09-27T13:44:22.228Z,33.30
2018-09-27T13:46:50.732Z,32.90
2018-09-27T13:49:19.173Z,32.40
2018-09-27T13:51:47.631Z,31.90
2018-09-27T13:54:16.287Z,31.70
2018-09-27T13:56:44.775Z,32.00
2018-09-27T13:59:13.240Z,32.40
2018-09-27T14:01:41.971Z,31.30
2018-09-27T14:04:10.482Z,31.00
2018-09-27T14:06:38.960Z,29.80
2018-09-27T14:09:08.738Z,30.60
2018-09-27T14:11:38.310Z,31.50
2018-09-27T14:14:07.633Z,32.00
2018-09-27T14:16:36.204Z,32.20
2018-09-27T14:19:04.780Z,32.50
2018-09-27T14:21:33.574Z,32.90
2018-09-27T14:24:02.069Z,32.50
2018-09-27T14:26:30.552Z,32.20
2018-09-27T14:28:58.989Z,32.40
2018-09-27T14:31:27.601Z,32.70
2018-09-27T14:33:56.076Z,33.10
2018-09-27T14:39:39.500Z,32.00
2018-09-27T14:42:08.048Z,30.90
2018-09-27T14:44:36.517Z,31.00
2018-09-27T14:47:05.102Z,31.60
2018-09-27T14:49:34.617Z,30.90
2018-09-27T14:52:03.247Z,30.70
2018-09-27T14:54:31.780Z,30.00
2018-09-27T14:57:00.295Z,29.50
2018-09-27T14:59:28.906Z,28.60
2018-09-27T15:01:57.343Z,26.90
2018-09-27T15:04:25.895Z,25.30
2018-09-27T15:06:54.578Z,24.60
2018-09-27T15:09:23.116Z,23.90
2018-09-27T15:11:51.597Z,23.50
2018-09-27T15:14:20.112Z,23.20
2018-09-27T15:16:48.624Z,22.90
2018-09-27T15:19:17.198Z,22.70
2018-09-27T15:21:45.760Z,22.60
2018-09-27T15:24:14.313Z,22.50
2018-09-27T15:26:42.796Z,22.40
2018-09-27T15:29:11.392Z,22.40
2018-09-27T15:31:40.012Z,22.30
2018-09-27T15:34:08.505Z,22.20
2018-09-27T15:36:37.131Z,22.10
2018-09-27T15:39:07.349Z,22.10
2018-09-27T15:41:35.827Z,22.00
2018-09-27T15:44:04.477Z,22.00
2018-09-27T15:46:32.989Z,21.90
2018-09-27T15:49:01.485Z,22.00
2018-09-27T15:51:30.041Z,22.00
2018-09-27T15:53:58.625Z,21.90
2018-09-27T15:59:26.673Z,21.80
2018-09-27T16:01:55.142Z,21.70
2018-09-27T16:04:23.622Z,21.70
2018-09-27T16:06:52.108Z,21.60
2018-09-27T16:09:20.701Z,21.60
2018-09-27T16:11:49.219Z,21.50
2018-09-27T16:14:18.139Z,21.40
2018-09-27T16:16:46.772Z,21.40
2018-09-27T16:19:15.233Z,21.20
2018-09-27T16:21:43.748Z,21.00
2018-09-27T16:24:12.194Z,20.80
2018-09-27T16:26:40.662Z,20.70
2018-09-27T16:29:09.654Z,20.50
2018-09-27T16:31:38.523Z,20.40
2018-09-27T16:34:07.198Z,20.30
2018-09-27T16:36:36.013Z,20.20
2018-09-27T16:39:06.448Z,20.10
2018-09-27T16:41:35.017Z,19.90
2018-09-27T16:44:03.531Z,19.80
2018-09-27T16:46:32.003Z,19.60
2018-09-27T16:49:00.518Z,19.50
2018-09-27T16:51:29.016Z,19.60
2018-09-27T16:53:57.500Z,19.40
2018-09-27T16:56:26.022Z,19.40
2018-09-27T16:58:54.485Z,19.30
2018-09-27T17:01:22.977Z,19.20
2018-09-27T17:03:51.449Z,19.00
2018-09-27T17:06:19.938Z,19.00
2018-09-27T17:08:48.383Z,18.80
2018-09-27T17:11:17.010Z,18.60
2018-09-27T17:13:46.900Z,18.40
2018-09-27T17:16:15.365Z,18.20
2018-09-27T17:18:43.857Z,18.00
2018-09-27T17:21:12.466Z,17.70
2018-09-27T17:23:40.972Z,17.50
2018-09-27T17:26:09.408Z,17.20
2018-09-27T17:28:37.944Z,16.90
2018-09-27T17:31:06.873Z,16.70
2018-09-27T17:33:35.347Z,16.50
2018-09-27T17:36:03.857Z,16.30
2018-09-27T17:38:32.303Z,16.00
2018-09-27T17:41:00.896Z,15.70
2018-09-27T17:43:29.386Z,15.60
2018-09-27T17:45:57.925Z,15.40
2018-09-27T17:48:26.359Z,15.40
2018-09-27T17:50:54.838Z,15.20
2018-09-27T17:53:23.474Z,15.00
2018-09-27T17:55:52.039Z,14.80
2018-09-27T17:58:20.736Z,14.60
2018-09-27T18:00:49.361Z,14.30
2018-09-27T18:03:17.817Z,14.30
2018-09-27T18:05:46.388Z,14.10
2018-09-27T18:08:15.038Z,13.90
2018-09-27T18:10:43.553Z,13.80
2018-09-27T18:13:12.048Z,13.70
2018-09-27T18:15:40.557Z,13.60
2018-09-27T18:18:09.029Z,13.40
2018-09-27T18:20:37.674Z,13.20
2018-09-27T18:23:06.123Z,13.10
2018-09-27T18:25:34.602Z,12.90
2018-09-27T18:28:03.084Z,12.90
2018-09-27T18:30:31.598Z,12.70
2018-09-27T18:33:00.046Z,12.60
2018-09-27T18:35:28.534Z,12.60
2018-09-27T18:37:57.641Z,12.50
2018-09-27T18:40:25.992Z,12.40
2018-09-27T18:42:55.044Z,12.30
2018-09-27T18:45:23.531Z,12.20
2018-09-27T18:47:51.988Z,12.10
2018-09-27T18:50:20.626Z,12.00
2018-09-27T18:52:49.117Z,11.80
2018-09-27T18:55:17.700Z,11.80
2018-09-27T18:57:46.305Z,11.70
2018-09-27T19:00:14.740Z,11.60
2018-09-27T19:02:43.229Z,11.40
2018-09-27T19:05:11.763Z,11.30
2018-09-27T19:07:40.337Z,11.20
2018-09-27T19:10:08.910Z,11.10
2018-09-27T19:12:37.487Z,11.00
2018-09-27T19:15:06.014Z,11.00
2018-09-27T19:17:35.270Z,10.90
2018-09-27T19:20:03.829Z,10.90
2018-09-27T19:22:32.435Z,10.80
2018-09-27T19:25:00.977Z,10.80
2018-09-27T19:27:29.496Z,10.70
2018-09-27T19:29:57.984Z,10.70
2018-09-27T19:32:26.442Z,10.60
2018-09-27T19:34:54.933Z,10.50
2018-09-27T19:37:23.411Z,10.40
2018-09-27T19:39:51.902Z,10.30
2018-09-27T19:42:20.373Z,10.30
2018-09-27T19:44:48.932Z,10.30
2018-09-27T19:47:17.817Z,10.20
2018-09-27T19:49:46.320Z,10.10
2018-09-27T19:52:15.850Z,10.10
2018-09-27T19:54:44.443Z,10.00
2018-09-27T19:57:12.971Z,10.10
2018-09-27T19:59:41.556Z,10.00
2018-09-27T20:02:10.023Z,10.00
2018-09-27T20:04:39.019Z,9.90
2018-09-27T20:07:07.529Z,9.90
2018-09-27T20:09:35.989Z,9.80
2018-09-27T20:12:04.478Z,9.80
2018-09-27T20:14:32.933Z,9.60
2018-09-27T20:17:01.470Z,9.60
2018-09-27T20:19:30.042Z,9.60
2018-09-27T20:21:58.557Z,9.50
2018-09-27T20:24:27.027Z,9.40
2018-09-27T20:26:55.524Z,9.30
2018-09-27T20:29:23.986Z,9.20
2018-09-27T20:31:52.451Z,9.20
2018-09-27T20:34:21.003Z,9.10
2018-09-27T20:36:49.482Z,9.00
2018-09-27T20:39:17.936Z,9.00
2018-09-27T20:41:46.454Z,9.00
2018-09-27T20:44:14.895Z,9.00
2018-09-27T20:46:43.646Z,9.00
2018-09-27T20:49:12.161Z,9.00
2018-09-27T20:51:40.658Z,9.00
2018-09-27T20:54:09.127Z,8.90
2018-09-27T20:56:37.609Z,8.80
2018-09-27T20:59:06.202Z,8.70
2018-09-27T21:01:34.691Z,8.70
2018-09-27T21:04:03.179Z,8.80
2018-09-27T21:06:31.656Z,8.80
2018-09-27T21:09:00.174Z,8.70
2018-09-27T21:11:28.773Z,8.70
2018-09-27T21:13:57.240Z,8.60
2018-09-27T21:19:41.024Z,8.70
2018-09-27T21:22:09.499Z,8.60
2018-09-27T21:24:38.083Z,8.50
2018-09-27T21:27:06.592Z,8.40
2018-09-27T21:29:35.041Z,8.40
2018-09-27T21:32:03.515Z,8.40
2018-09-27T21:34:32.033Z,8.40
2018-09-27T21:37:00.560Z,8.30
2018-09-27T21:39:29.067Z,8.30
2018-09-27T21:41:57.634Z,8.20
2018-09-27T21:44:26.092Z,8.20
2018-09-27T21:46:54.611Z,8.20
2018-09-27T21:49:23.319Z,8.20
2018-09-27T21:51:51.767Z,8.20
2018-09-27T21:54:20.228Z,8.30
2018-09-27T21:56:48.803Z,8.30
2018-09-27T21:59:17.300Z,8.10
2018-09-27T22:01:45.742Z,8.10
2018-09-27T22:04:14.258Z,8.10
2018-09-27T22:06:42.830Z,8.10
2018-09-27T22:09:11.454Z,8.10
2018-09-27T22:11:40.179Z,8.10
2018-09-27T22:14:08.821Z,8.10
2018-09-27T22:16:37.291Z,8.00
2018-09-27T22:19:05.886Z,7.90
2018-09-27T22:21:34.365Z,7.90
2018-09-27T22:24:03.428Z,7.80
2018-09-27T22:26:31.900Z,7.80
2018-09-27T22:29:00.442Z,7.70
2018-09-27T22:31:28.916Z,7.70
2018-09-27T22:33:57.655Z,7.60
2018-09-27T22:36:26.235Z,7.60
2018-09-27T22:38:54.897Z,7.50
2018-09-27T22:41:23.400Z,7.50
2018-09-27T22:43:51.892Z,7.40
2018-09-27T22:46:20.355Z,7.40
2018-09-27T22:48:48.928Z,7.40
2018-09-27T22:51:17.376Z,7.40
2018-09-27T22:53:45.849Z,7.40
2018-09-27T22:56:14.318Z,7.40
2018-09-27T22:58:42.796Z,7.30
2018-09-27T23:01:11.235Z,7.20
2018-09-27T23:03:39.732Z,7.20
2018-09-27T23:06:08.199Z,7.20
2018-09-27T23:08:36.749Z,7.10
2018-09-27T23:11:05.252Z,7.10
2018-09-27T23:13:33.763Z,7.10
2018-09-27T23:16:02.191Z,7.10
2018-09-27T23:18:30.680Z,7.10
2018-09-27T23:20:59.207Z,7.00
2018-09-27T23:23:27.711Z,7.00
2018-09-27T23:25:56.290Z,6.90
2018-09-27T23:28:24.757Z,6.90
2018-09-27T23:30:53.219Z,7.00
2018-09-27T23:33:21.698Z,7.00
2018-09-27T23:35:50.215Z,6.90
2018-09-27T23:38:18.727Z,6.90
2018-09-27T23:40:47.248Z,6.80
2018-09-27T23:43:15.716Z,6.80
2018-09-27T23:45:44.234Z,6.80
2018-09-27T23:48:12.760Z,6.80
2018-09-27T23:50:41.220Z,6.80
2018-09-27T23:53:09.667Z,6.80
2018-09-27T23:55:38.155Z,6.80
2018-09-27T23:58:06.763Z,6.80
